createdAt,value
2022-09-15T00:01:35.891Z,2.53
2022-09-15T00:04:05.831Z,2.85
2022-09-15T00:06:34.649Z,2.50
2022-09-15T00:09:03.212Z,2.58
2022-09-15T00:11:33.621Z,2.28
2022-09-15T00:14:05.910Z,2.20
2022-09-15T00:16:34.724Z,2.63
2022-09-15T00:19:03.671Z,2.72
2022-09-15T00:24:03.642Z,2.50
2022-09-15T00:26:32.814Z,2.83
2022-09-15T00:29:03.997Z,2.47
2022-09-15T00:31:33.540Z,2.58
2022-09-15T00:34:04.118Z,2.40
2022-09-15T00:36:32.986Z,2.20
2022-09-15T00:39:01.443Z,2.80
2022-09-15T00:41:30.290Z,2.22
2022-09-15T00:44:00.770Z,2.30
2022-09-15T00:46:32.770Z,1.88
2022-09-15T00:49:05.301Z,2.58
2022-09-15T00:51:40.030Z,2.10
2022-09-15T00:54:15.506Z,2.28
2022-09-15T00:56:45.515Z,1.75
2022-09-15T00:59:19.271Z,2.20
2022-09-15T01:01:56.321Z,2.22
2022-09-15T01:04:25.042Z,2.58
2022-09-15T01:06:58.626Z,1.90
2022-09-15T01:09:32.593Z,2.75
2022-09-15T01:12:01.350Z,2.20
2022-09-15T01:14:29.839Z,2.75
2022-09-15T01:17:07.187Z,1.98
2022-09-15T01:20:20.199Z,1.88
2022-09-15T01:23:05.820Z,2.50
2022-09-15T01:25:56.163Z,1.92
2022-09-15T01:28:45.797Z,2.20
2022-09-15T01:31:24.772Z,2.10
2022-09-15T01:36:31.839Z,2.40
2022-09-15T01:39:06.273Z,2.45
2022-09-15T01:41:39.000Z,1.88
2022-09-15T01:44:11.435Z,2.00
2022-09-15T01:46:47.304Z,2.05
2022-09-15T01:49:19.908Z,2.10
2022-09-15T01:51:52.068Z,1.80
2022-09-15T01:54:23.570Z,2.00
2022-09-15T01:56:52.181Z,2.33
2022-09-15T01:59:20.862Z,2.38
2022-09-15T02:01:59.244Z,2.50
2022-09-15T02:04:33.619Z,2.40
2022-09-15T02:07:12.750Z,1.92
2022-09-15T02:09:49.433Z,2.10
2022-09-15T02:12:27.875Z,2.38
2022-09-15T02:14:59.544Z,2.15
2022-09-15T02:17:39.545Z,2.42
2022-09-15T02:20:16.236Z,1.80
2022-09-15T02:22:50.040Z,2.30
2022-09-15T02:25:22.866Z,2.00
2022-09-15T02:27:55.197Z,2.15
2022-09-15T02:30:24.148Z,2.33
2022-09-15T02:32:58.649Z,2.13
2022-09-15T02:35:29.634Z,1.88
2022-09-15T02:37:59.699Z,1.67
2022-09-15T02:40:30.337Z,2.17
2022-09-15T02:43:02.271Z,2.45
2022-09-15T02:45:32.310Z,2.17
2022-09-15T02:48:02.344Z,2.40
2022-09-15T02:50:31.157Z,2.15
2022-09-15T02:52:59.607Z,2.17
2022-09-15T02:55:29.204Z,2.20
2022-09-15T02:57:57.987Z,1.80
2022-09-15T03:00:27.126Z,2.00
2022-09-15T03:02:56.343Z,2.30
2022-09-15T03:05:28.443Z,2.22
2022-09-15T03:07:57.501Z,1.80
2022-09-15T03:12:56.178Z,2.10
2022-09-15T03:15:26.686Z,2.20
2022-09-15T03:17:56.033Z,2.30
2022-09-15T03:20:28.707Z,2.40
2022-09-15T03:22:57.430Z,2.10
2022-09-15T03:25:27.264Z,1.85
2022-09-15T03:27:55.785Z,1.73
2022-09-15T03:30:24.393Z,1.90
2022-09-15T03:32:52.985Z,2.00
2022-09-15T03:35:21.464Z,1.90
2022-09-15T03:37:51.326Z,2.30
2022-09-15T03:40:20.107Z,2.15
2022-09-15T03:42:48.617Z,1.98
2022-09-15T03:45:17.324Z,2.13
2022-09-15T03:47:45.770Z,2.00
2022-09-15T03:50:14.361Z,1.80
2022-09-15T03:52:42.827Z,2.17
2022-09-15T03:55:13.111Z,1.73
2022-09-15T03:57:41.603Z,2.13
2022-09-15T04:00:11.565Z,2.03
2022-09-15T04:02:40.011Z,2.03
2022-09-15T04:05:09.483Z,1.60
2022-09-15T04:07:38.094Z,1.55
2022-09-15T04:10:07.892Z,2.05
2022-09-15T04:12:37.791Z,1.80
2022-09-15T04:15:07.695Z,2.22
2022-09-15T04:17:36.473Z,2.05
2022-09-15T04:20:05.122Z,1.90
2022-09-15T04:22:34.320Z,1.85
2022-09-15T04:25:02.706Z,2.00
2022-09-15T04:30:04.471Z,1.75
2022-09-15T04:32:32.978Z,1.95
2022-09-15T04:35:01.510Z,2.20
2022-09-15T04:37:31.970Z,2.25
2022-09-15T04:40:01.470Z,3.47
2022-09-15T04:42:32.342Z,2.70
2022-09-15T04:45:00.813Z,2.70
2022-09-15T04:47:31.119Z,2.60
2022-09-15T04:49:59.581Z,2.70
2022-09-15T04:52:28.154Z,2.67
2022-09-15T04:54:56.563Z,2.85
2022-09-15T04:57:25.156Z,2.67
2022-09-15T04:59:53.628Z,2.58
2022-09-15T05:02:22.301Z,2.80
2022-09-15T05:04:52.620Z,3.25
2022-09-15T05:07:21.147Z,2.50
2022-09-15T05:09:49.674Z,2.80
2022-09-15T05:12:18.357Z,2.97
2022-09-15T05:14:46.971Z,3.00
2022-09-15T05:17:15.375Z,2.60
2022-09-15T05:19:43.908Z,3.28
2022-09-15T05:22:13.719Z,2.95
2022-09-15T05:24:42.406Z,3.42
2022-09-15T05:27:10.887Z,2.70
2022-09-15T05:29:39.583Z,2.95
2022-09-15T05:32:08.052Z,2.55
2022-09-15T05:34:36.750Z,2.88
2022-09-15T05:37:05.431Z,2.85
2022-09-15T05:39:35.369Z,2.75
2022-09-15T05:42:03.873Z,2.40
2022-09-15T05:44:32.755Z,3.88
2022-09-15T05:47:01.220Z,3.03
2022-09-15T05:49:29.897Z,2.35
2022-09-15T05:51:58.714Z,3.00
2022-09-15T05:54:27.708Z,2.40
2022-09-15T05:59:25.920Z,2.67
2022-09-15T06:01:54.478Z,2.97
2022-09-15T06:04:23.000Z,3.70
2022-09-15T06:06:51.481Z,3.20
2022-09-15T06:09:19.954Z,3.05
2022-09-15T06:11:48.494Z,3.03
2022-09-15T06:14:18.466Z,3.10
2022-09-15T06:16:46.912Z,2.90
2022-09-15T06:19:15.497Z,2.70
2022-09-15T06:21:43.979Z,2.75
2022-09-15T06:24:13.751Z,3.63
2022-09-15T06:26:42.151Z,2.90
2022-09-15T06:29:13.377Z,2.92
2022-09-15T06:31:43.436Z,2.55
2022-09-15T06:34:12.939Z,2.67
2022-09-15T06:36:41.629Z,2.72
2022-09-15T06:39:10.314Z,3.08
2022-09-15T06:42:00.686Z,3.67
2022-09-15T06:44:30.368Z,3.15
2022-09-15T06:47:00.225Z,3.03
2022-09-15T06:49:29.135Z,3.00
2022-09-15T06:51:57.703Z,3.67
2022-09-15T06:54:26.177Z,3.97
2022-09-15T06:56:54.812Z,3.75
2022-09-15T06:59:24.702Z,3.33
2022-09-15T07:01:54.669Z,3.50
2022-09-15T07:04:24.698Z,3.47
2022-09-15T07:06:53.212Z,4.32
2022-09-15T07:09:21.650Z,3.92
2022-09-15T07:11:50.312Z,3.60
2022-09-15T07:14:18.719Z,3.53
2022-09-15T07:16:47.354Z,3.75
2022-09-15T07:19:15.942Z,4.05
2022-09-15T07:21:45.762Z,3.65
2022-09-15T07:24:14.737Z,3.50
2022-09-15T07:26:43.128Z,3.95
2022-09-15T07:29:11.679Z,4.20
2022-09-15T07:31:40.335Z,4.50
2022-09-15T07:34:09.156Z,3.83
2022-09-15T07:36:37.981Z,3.55
2022-09-15T07:39:08.034Z,3.72
2022-09-15T07:41:36.890Z,3.95
2022-09-15T07:44:08.156Z,3.55
2022-09-15T07:46:36.678Z,4.05
2022-09-15T07:49:06.948Z,3.70
2022-09-15T07:51:35.554Z,3.65
2022-09-15T07:54:04.487Z,3.80
2022-09-15T07:56:34.402Z,3.15
2022-09-15T07:59:02.979Z,4.05
2022-09-15T08:01:31.503Z,3.92
2022-09-15T08:04:00.097Z,4.00
2022-09-15T08:06:28.893Z,3.63
2022-09-15T08:09:00.845Z,3.70
2022-09-15T08:11:30.144Z,3.42
2022-09-15T08:14:03.458Z,3.58
2022-09-15T08:16:32.152Z,3.42
2022-09-15T08:19:01.080Z,3.53
2022-09-15T08:21:29.832Z,3.80
2022-09-15T08:23:59.928Z,3.70
2022-09-15T08:26:30.122Z,3.83
2022-09-15T08:29:00.806Z,3.78
2022-09-15T08:31:29.626Z,3.28
2022-09-15T08:33:58.320Z,2.97
2022-09-15T08:36:28.363Z,3.83
2022-09-15T08:38:57.526Z,3.45
2022-09-15T08:44:03.667Z,3.13
2022-09-15T08:46:38.137Z,3.35
2022-09-15T08:49:12.213Z,3.80
2022-09-15T08:51:46.318Z,3.45
2022-09-15T08:54:20.612Z,2.95
2022-09-15T08:56:49.889Z,3.35
2022-09-15T09:01:58.205Z,3.00
2022-09-15T09:04:43.722Z,3.13
2022-09-15T09:07:50.758Z,2.78
2022-09-15T09:10:26.903Z,2.88
2022-09-15T09:13:14.428Z,2.80
2022-09-15T09:15:54.211Z,3.10
2022-09-15T09:18:55.475Z,2.88
2022-09-15T09:21:27.748Z,2.75
2022-09-15T09:24:03.838Z,2.90
2022-09-15T09:26:35.362Z,3.03
2022-09-15T09:29:09.451Z,2.85
2022-09-15T09:31:41.195Z,2.75
2022-09-15T09:34:20.692Z,2.63
2022-09-15T09:36:55.743Z,3.25
2022-09-15T09:39:24.581Z,3.35
2022-09-15T09:41:53.245Z,3.10
2022-09-15T09:44:32.053Z,2.90
2022-09-15T09:47:02.876Z,3.30
2022-09-15T09:49:35.598Z,3.08
2022-09-15T09:52:05.602Z,3.28
2022-09-15T09:54:35.687Z,3.35
2022-09-15T09:57:29.395Z,3.00
2022-09-15T09:59:58.196Z,2.85
2022-09-15T10:02:29.264Z,2.90
2022-09-15T10:05:20.017Z,2.83
2022-09-15T10:07:48.900Z,2.60
2022-09-15T10:10:23.187Z,2.50
2022-09-15T10:12:56.601Z,2.60
2022-09-15T10:15:27.417Z,3.00
2022-09-15T10:17:58.426Z,2.58
2022-09-15T10:20:32.831Z,3.03
2022-09-15T10:23:07.542Z,2.78
2022-09-15T10:28:28.822Z,2.50
2022-09-15T10:31:05.569Z,2.92
2022-09-15T10:33:36.664Z,2.95
2022-09-15T10:36:08.238Z,3.22
2022-09-15T10:38:44.147Z,3.10
2022-09-15T10:41:22.111Z,2.60
2022-09-15T10:44:15.822Z,3.22
2022-09-15T10:46:56.000Z,2.80
2022-09-15T10:49:50.228Z,3.17
2022-09-15T10:52:29.516Z,2.58
2022-09-15T10:55:31.860Z,2.83
2022-09-15T10:58:25.750Z,2.70
2022-09-15T11:01:05.345Z,2.78
2022-09-15T11:04:00.291Z,2.38
2022-09-15T11:06:36.742Z,2.67
2022-09-15T11:09:16.111Z,2.67
2022-09-15T11:11:56.328Z,2.47
2022-09-15T11:14:39.893Z,2.55
2022-09-15T11:17:22.985Z,2.95
2022-09-15T11:20:15.242Z,2.88
2022-09-15T11:22:50.668Z,2.88
2022-09-15T11:25:21.690Z,2.90
2022-09-15T11:27:54.603Z,2.90
2022-09-15T11:30:25.622Z,3.30
2022-09-15T11:33:00.347Z,3.00
2022-09-15T11:35:41.797Z,2.92
2022-09-15T11:38:22.883Z,3.08
2022-09-15T11:40:56.495Z,2.55
2022-09-15T11:43:34.496Z,2.50
2022-09-15T11:46:09.508Z,3.10
2022-09-15T11:48:44.912Z,3.28
2022-09-15T11:51:16.943Z,2.85
2022-09-15T11:53:51.763Z,2.85
2022-09-15T11:56:25.670Z,2.72
2022-09-15T11:59:06.761Z,2.97
2022-09-15T12:01:45.370Z,2.92
2022-09-15T12:04:21.870Z,2.50
2022-09-15T12:06:54.878Z,2.65
2022-09-15T12:09:25.009Z,2.50
2022-09-15T12:11:58.467Z,2.50
2022-09-15T12:14:33.619Z,3.10
2022-09-15T12:17:03.406Z,2.85
2022-09-15T12:19:50.142Z,3.13
2022-09-15T12:22:24.212Z,2.90
2022-09-15T12:25:01.577Z,3.00
2022-09-15T12:27:31.997Z,2.70
2022-09-15T12:30:01.725Z,3.15
2022-09-15T12:32:33.485Z,2.65
2022-09-15T12:35:13.332Z,2.97
2022-09-15T12:37:45.354Z,2.78
2022-09-15T12:40:35.182Z,2.72
2022-09-15T12:43:05.589Z,2.63
2022-09-15T12:45:37.161Z,3.30
2022-09-15T12:48:08.377Z,2.83
2022-09-15T12:50:39.788Z,2.85
2022-09-15T12:53:20.348Z,2.90
2022-09-15T12:55:55.544Z,3.05
2022-09-15T12:58:30.478Z,2.67
2022-09-15T13:01:37.585Z,2.70
2022-09-15T13:04:50.642Z,2.58
2022-09-15T13:07:37.010Z,2.80
2022-09-15T13:10:31.854Z,3.00
2022-09-15T13:13:17.446Z,2.65
2022-09-15T13:15:50.378Z,2.90
2022-09-15T13:18:21.599Z,2.63
2022-09-15T13:21:00.046Z,2.80
2022-09-15T13:23:30.030Z,2.90
2022-09-15T13:26:01.358Z,2.70
2022-09-15T13:28:31.414Z,2.88
2022-09-15T13:31:18.772Z,2.78
2022-09-15T13:40:34.889Z,2.80
2022-09-15T13:43:23.639Z,2.67
2022-09-15T13:46:04.280Z,2.80
2022-09-15T13:48:49.975Z,2.60
2022-09-15T13:51:25.244Z,2.75
2022-09-15T13:53:57.888Z,2.95
2022-09-15T13:56:28.961Z,3.65
2022-09-15T13:59:14.500Z,2.70
2022-09-15T14:01:46.295Z,2.83
2022-09-15T14:04:17.905Z,2.70
2022-09-15T14:06:48.430Z,2.70
2022-09-15T14:09:19.710Z,2.72
2022-09-15T14:11:50.428Z,2.78
2022-09-15T14:14:37.260Z,2.95
2022-09-15T14:17:07.950Z,2.95
2022-09-15T14:19:38.157Z,2.92
2022-09-15T14:22:26.278Z,2.55
2022-09-15T14:24:56.714Z,2.97
2022-09-15T14:27:27.545Z,2.67
2022-09-15T14:29:58.062Z,2.85
2022-09-15T14:32:29.861Z,2.67
2022-09-15T14:35:01.894Z,3.63
2022-09-15T14:37:32.783Z,2.50
2022-09-15T14:40:03.312Z,2.88
2022-09-15T14:42:37.564Z,3.00
2022-09-15T14:48:18.637Z,3.47
2022-09-15T14:50:57.598Z,2.92
2022-09-15T14:53:28.431Z,2.42
2022-09-15T14:56:07.090Z,2.40
2022-09-15T14:58:38.800Z,3.08
2022-09-15T15:01:15.809Z,2.70
2022-09-15T15:03:52.105Z,2.80
2022-09-15T15:06:28.732Z,2.60
2022-09-15T15:09:03.237Z,2.58
2022-09-15T15:11:33.149Z,2.63
2022-09-15T15:14:03.104Z,2.88
2022-09-15T15:16:33.005Z,2.60
2022-09-15T15:19:03.070Z,3.70
2022-09-15T15:21:40.390Z,4.70
2022-09-15T15:24:16.256Z,6.10
2022-09-15T15:26:46.136Z,7.00
2022-09-15T15:29:39.352Z,9.00
2022-09-15T15:32:13.077Z,8.02
2022-09-15T15:34:50.095Z,9.07
2022-09-15T15:37:26.997Z,8.35
2022-09-15T15:39:57.402Z,11.77
2022-09-15T15:42:28.826Z,11.05
2022-09-15T15:45:20.923Z,12.05
2022-09-15T15:47:49.940Z,11.32
2022-09-15T15:50:22.066Z,13.40
2022-09-15T15:52:51.199Z,14.95
2022-09-15T15:57:51.168Z,14.00
2022-09-15T16:00:23.074Z,13.00
2022-09-15T16:02:52.388Z,11.93
2022-09-15T16:05:26.552Z,12.05
2022-09-15T16:07:57.199Z,11.15
2022-09-15T16:10:30.933Z,10.15
2022-09-15T16:12:59.557Z,10.73
2022-09-15T16:15:28.417Z,9.60
2022-09-15T16:17:56.988Z,9.27
2022-09-15T16:20:28.505Z,8.85
2022-09-15T16:22:57.041Z,9.02
2022-09-15T16:25:35.492Z,8.38
2022-09-15T16:28:04.921Z,9.48
2022-09-15T16:30:34.219Z,9.27
2022-09-15T16:33:02.866Z,8.35
2022-09-15T16:35:39.453Z,8.73
2022-09-15T16:38:08.715Z,8.73
2022-09-15T16:40:38.178Z,7.50
2022-09-15T16:43:13.703Z,8.13
2022-09-15T16:45:42.305Z,7.70
2022-09-15T16:48:11.222Z,6.93
2022-09-15T16:50:50.347Z,6.90
2022-09-15T16:53:31.291Z,6.43
2022-09-15T16:58:28.884Z,6.38
2022-09-15T17:00:58.360Z,6.40
2022-09-15T17:03:28.016Z,6.10
2022-09-15T17:05:59.708Z,6.07
2022-09-15T17:08:29.976Z,5.78
2022-09-15T17:10:59.551Z,5.85
2022-09-15T17:13:30.479Z,5.53
2022-09-15T17:16:00.289Z,6.18
2022-09-15T17:18:29.716Z,5.20
2022-09-15T17:21:00.173Z,5.60
2022-09-15T17:23:31.612Z,5.00
2022-09-15T17:26:02.347Z,5.15
2022-09-15T17:28:32.821Z,4.88
2022-09-15T17:31:03.246Z,4.75
2022-09-15T17:33:33.317Z,4.90
2022-09-15T17:36:04.024Z,4.63
2022-09-15T17:38:33.105Z,4.90
2022-09-15T17:43:33.071Z,5.00
2022-09-15T17:46:01.857Z,4.32
2022-09-15T17:48:30.442Z,4.72
2022-09-15T17:51:01.230Z,4.93
2022-09-15T17:53:31.577Z,4.80
2022-09-15T17:56:00.341Z,4.38
2022-09-15T17:58:31.532Z,4.60
2022-09-15T18:01:00.890Z,4.72
2022-09-15T18:03:33.353Z,4.60
2022-09-15T18:06:05.461Z,4.78
2022-09-15T18:08:36.498Z,4.80
2022-09-15T18:11:06.763Z,4.43
2022-09-15T18:13:36.410Z,4.22
2022-09-15T18:16:07.151Z,3.90
2022-09-15T18:18:36.534Z,4.18
2022-09-15T18:21:10.016Z,4.32
2022-09-15T18:23:42.593Z,4.30
2022-09-15T18:26:11.401Z,3.83
2022-09-15T18:28:40.258Z,3.92
2022-09-15T18:31:09.256Z,4.63
2022-09-15T18:33:37.964Z,4.30
2022-09-15T18:36:08.739Z,4.32
2022-09-15T18:38:37.679Z,4.40
2022-09-15T18:41:11.933Z,4.70
2022-09-15T18:43:40.718Z,4.43
2022-09-15T18:46:09.385Z,4.10
2022-09-15T18:48:38.000Z,4.45
2022-09-15T18:51:10.001Z,3.63
2022-09-15T18:53:38.746Z,4.30
2022-09-15T18:56:12.702Z,3.88
2022-09-15T18:58:41.767Z,3.80
2022-09-15T19:03:44.078Z,3.90
2022-09-15T19:06:13.061Z,3.72
2022-09-15T19:08:41.659Z,4.13
2022-09-15T19:11:11.673Z,3.85
2022-09-15T19:13:40.249Z,3.50
2022-09-15T19:16:10.005Z,3.88
2022-09-15T19:18:39.056Z,3.35
2022-09-15T19:23:36.987Z,3.00
2022-09-15T19:26:07.200Z,3.50
2022-09-15T19:28:37.140Z,3.30
2022-09-15T19:31:06.153Z,3.70
2022-09-15T19:36:24.527Z,3.73
2022-09-15T19:38:52.726Z,3.47
2022-09-15T19:41:21.197Z,2.88
2022-09-15T19:43:51.152Z,2.70
2022-09-15T19:46:24.185Z,2.95
2022-09-15T19:48:53.377Z,3.08
2022-09-15T19:51:22.953Z,3.35
2022-09-15T19:53:55.119Z,3.38
2022-09-15T19:56:26.322Z,2.90
2022-09-15T19:58:57.869Z,3.00
2022-09-15T20:01:28.641Z,2.92
2022-09-15T20:03:58.832Z,3.00
2022-09-15T20:06:32.266Z,2.88
2022-09-15T20:09:02.395Z,2.83
2022-09-15T20:11:32.787Z,3.08
2022-09-15T20:14:04.245Z,2.60
2022-09-15T20:16:33.498Z,2.70
2022-09-15T20:19:04.119Z,2.35
2022-09-15T20:21:51.648Z,2.60
2022-09-15T20:24:22.555Z,2.40
2022-09-15T20:26:52.054Z,2.45
2022-09-15T20:29:24.451Z,2.60
2022-09-15T20:31:54.091Z,2.63
2022-09-15T20:34:23.159Z,2.17
2022-09-15T20:36:52.274Z,2.20
2022-09-15T20:39:23.092Z,2.40
2022-09-15T20:41:52.630Z,2.40
2022-09-15T20:44:23.356Z,2.47
2022-09-15T20:46:52.416Z,2.50
2022-09-15T20:51:52.283Z,2.30
2022-09-15T20:54:21.493Z,2.40
2022-09-15T20:56:50.761Z,2.63
2022-09-15T21:01:49.943Z,2.10
2022-09-15T21:04:19.240Z,2.08
2022-09-15T21:06:48.021Z,2.17
2022-09-15T21:09:17.467Z,2.30
2022-09-15T21:11:50.151Z,2.08
2022-09-15T21:14:21.631Z,1.90
2022-09-15T21:16:51.535Z,1.98
2022-09-15T21:19:20.125Z,1.75
2022-09-15T21:21:49.093Z,1.67
2022-09-15T21:27:14.974Z,1.97
2022-09-15T21:29:43.581Z,1.83
2022-09-15T21:32:13.496Z,1.90
2022-09-15T21:34:42.198Z,1.60
2022-09-15T21:37:11.194Z,1.80
2022-09-15T21:39:39.732Z,1.90
2022-09-15T21:42:10.272Z,1.80
2022-09-15T21:44:39.045Z,1.73
2022-09-15T21:47:07.549Z,2.10
2022-09-15T21:49:37.643Z,1.60
2022-09-15T21:52:06.297Z,1.63
2022-09-15T21:54:34.569Z,1.70
2022-09-15T21:57:03.116Z,1.70
2022-09-15T21:59:31.564Z,1.50
2022-09-15T22:02:00.252Z,1.70
2022-09-15T22:04:28.841Z,1.88
2022-09-15T22:06:58.760Z,1.92
2022-09-15T22:09:27.066Z,1.77
2022-09-15T22:11:55.510Z,1.80
2022-09-15T22:14:24.070Z,1.70
2022-09-15T22:16:52.696Z,1.65
2022-09-15T22:19:21.668Z,1.77
2022-09-15T22:21:50.276Z,1.60
2022-09-15T22:24:20.343Z,1.50
2022-09-15T22:26:49.036Z,1.52
2022-09-15T22:29:17.810Z,1.73
2022-09-15T22:31:46.318Z,1.42
2022-09-15T22:34:15.106Z,1.70
2022-09-15T22:36:43.571Z,1.65
2022-09-15T22:39:13.465Z,1.55
2022-09-15T22:41:43.358Z,1.70
2022-09-15T22:44:19.983Z,1.73
2022-09-15T22:46:49.799Z,1.70
2022-09-15T22:49:18.405Z,1.90
2022-09-15T22:51:46.984Z,1.60
2022-09-15T22:54:15.836Z,1.20
2022-09-15T22:56:47.035Z,1.77
2022-09-15T22:59:15.774Z,1.80
2022-09-15T23:01:44.926Z,1.48
2022-09-15T23:04:13.483Z,1.77
2022-09-15T23:06:41.936Z,2.30
2022-09-15T23:09:12.056Z,2.10
2022-09-15T23:11:41.383Z,2.22
2022-09-15T23:14:15.828Z,2.30
2022-09-15T23:16:44.902Z,2.30
2022-09-15T23:21:42.247Z,2.20
2022-09-15T23:24:12.613Z,2.78
2022-09-15T23:26:41.182Z,2.03
2022-09-15T23:29:10.227Z,2.08
2022-09-15T23:31:40.235Z,2.08
2022-09-15T23:34:08.734Z,2.00
2022-09-15T23:36:37.208Z,1.90
2022-09-15T23:39:05.692Z,2.38
2022-09-15T23:41:34.210Z,1.80
2022-09-15T23:44:02.908Z,1.80
2022-09-15T23:46:31.612Z,2.03
2022-09-15T23:49:02.188Z,2.00
2022-09-15T23:51:31.260Z,1.85
2022-09-15T23:53:59.719Z,1.98
2022-09-15T23:56:28.492Z,2.30
2022-09-15T23:58:57.148Z,1.95
